Time;durP1;ratioP1;P1;durP2;ratioP2;P2;SDS_P1;SDS_P2;PMS_P1;PMS_P2;Temp;Humidity;BMP_temperature;BMP_pressure;BME280_temperature;BME280_humidity;BME280_pressure;Samples;Min_cycle;Max_cycle;Signal;HPM_P1;HPM_P2
2023/08/30 07:23:33;;;;;;;10.07;9.07;;;;;;;-145.79;95.42;76800.78;5311947;27;20888;-74
2023/08/30 07:26:04;;;;;;;10.68;8.48;;;;;;;-145.79;96.23;76794.41;5321970;28;20043;-75
2023/08/30 07:28:36;;;;;;;11.90;9.18;;;;;;;-145.79;96.62;76796.53;5322172;28;20031;-75
2023/08/30 07:31:07;;;;;;;8.93;8.05;;;;;;;-145.79;96.48;76794.41;5315465;28;20081;-75
2023/08/30 07:33:39;;;;;;;8.00;7.25;;;;;;;-145.79;96.85;76777.47;5311026;28;20085;-75
2023/08/30 07:36:11;;;;;;;8.15;7.35;;;;;;;-145.79;96.35;76779.59;5304311;28;20029;-75
2023/08/30 07:38:42;;;;;;;25.85;23.42;;;;;;;-145.79;96.63;76775.34;5286549;28;20037;-75
2023/08/30 07:41:14;;;;;;;23.23;20.90;;;;;;;-145.79;96.17;76779.59;5299288;28;20062;-76
2023/08/30 07:43:45;;;;;;;6.80;6.18;;;;;;;-145.79;96.33;76766.88;5308182;28;20031;-76
2023/08/30 07:46:19;;;;;;;7.13;5.75;;;;;;;-145.79;96.60;76745.69;5292601;28;20529;-76
2023/08/30 07:48:54;;;;;;;7.72;6.97;;;;;;;-145.79;95.77;76762.63;5289324;28;20024;-76
2023/08/30 07:51:25;;;;;;;8.13;7.32;;;;;;;-145.79;96.72;76756.28;5296659;28;20035;-77
2023/08/30 07:53:56;;;;;;;7.57;6.85;;;;;;;-145.79;96.78;76754.16;5308334;28;20024;-76
2023/08/30 07:56:29;;;;;;;7.10;6.40;;;;;;;-145.79;96.97;76745.69;5293200;28;20028;-77
2023/08/30 07:59:00;;;;;;;6.72;6.03;;;;;;;-145.79;97.25;76732.97;5295160;28;20020;-77
2023/08/30 08:01:31;;;;;;;6.25;5.65;;;;;;;-145.79;97.41;76724.47;5307222;28;20035;-78
2023/08/30 08:04:03;;;;;;;6.57;5.90;;;;;;;-145.79;96.41;76732.97;5300621;28;20029;-78
2023/08/30 08:06:34;;;;;;;5.88;5.30;;;;;;;-145.79;96.86;76716.00;5298994;28;20107;-79
2023/08/30 08:09:07;;;;;;;5.20;4.70;;;;;;;-145.79;95.96;76745.69;5311828;28;20027;-75
2023/08/30 08:11:43;;;;;;;5.60;5.05;;;;;;;-145.79;97.10;76749.91;5312532;28;20024;-76
2023/08/30 08:14:14;;;;;;;6.57;5.28;;;;;;;-145.79;97.29;76745.69;5298121;28;20016;-76
2023/08/30 08:16:46;;;;;;;5.93;5.15;;;;;;;-145.79;97.82;76737.19;5311520;28;20535;-77
2023/08/30 08:19:17;;;;;;;5.63;5.13;;;;;;;-145.79;97.83;76741.44;5307473;28;20028;-76
2023/08/30 08:21:49;;;;;;;6.03;5.43;;;;;;;-145.79;97.69;76737.19;5308207;28;20044;-77
2023/08/30 08:24:21;;;;;;;5.38;4.28;;;;;;;-145.79;97.22;76722.34;5316242;28;20054;-75
2023/08/30 08:26:52;;;;;;;28.38;25.80;;;;;;;-145.79;97.15;76758.38;5311314;28;20489;-75
2023/08/30 08:29:23;;;;;;;24.80;22.20;;;;;;;-145.79;98.02;76728.72;5298978;28;20463;-75
2023/08/30 08:31:55;;;;;;;5.95;5.15;;;;;;;-145.79;97.63;76743.56;5311069;28;20483;-76
2023/08/30 08:34:26;;;;;;;5.45;4.95;;;;;;;-145.79;98.16;76735.06;5289559;28;20031;-75
2023/08/30 08:36:58;;;;;;;6.18;5.43;;;;;;;-145.79;97.98;76747.78;5284633;28;20028;-76
2023/08/30 08:39:30;;;;;;;4.95;4.53;;;;;;;-145.79;99.34;76739.31;5290678;28;20040;-75
2023/08/30 08:42:03;;;;;;;5.20;4.38;;;;;;;-145.79;98.89;76756.28;5284678;28;20105;-75
2023/08/30 08:44:36;;;;;;;4.70;4.05;;;;;;;-145.79;99.41;76741.44;5296256;28;20040;-76
2023/08/30 08:47:07;;;;;;;5.13;4.43;;;;;;;-145.79;98.98;76745.69;5299014;28;20644;-75
2023/08/30 08:49:40;;;;;;;4.32;3.60;;;;;;;-145.79;99.38;76735.06;5284912;28;20195;-75
2023/08/30 08:52:11;;;;;;;4.93;3.70;;;;;;;-145.79;99.31;76739.31;5275924;28;20182;-74
2023/08/30 08:54:43;;;;;;;4.13;3.50;;;;;;;-145.79;99.10;76732.97;5279612;28;20115;-74
2023/08/30 08:57:15;;;;;;;4.72;3.97;;;;;;;-145.79;99.39;76735.06;5274775;28;20036;-75
2023/08/30 08:59:46;;;;;;;5.75;3.88;;;;;;;-145.79;99.47;76730.84;5293071;28;20024;-73
2023/08/30 09:02:18;;;;;;;4.13;3.55;;;;;;;-145.79;99.75;76726.59;5290460;28;20039;-75
2023/08/30 09:04:49;;;;;;;8.07;7.38;;;;;;;-145.79;99.71;76724.47;5294958;28;20031;-76
2023/08/30 09:07:21;;;;;;;3.90;3.60;;;;;;;-145.79;99.20;76732.97;5294584;28;20031;-76
2023/08/30 09:09:54;;;;;;;4.45;3.58;;;;;;;-145.79;100.00;76724.47;5288082;28;20023;-75
2023/08/30 09:12:25;;;;;;;5.03;4.05;;;;;;;-145.79;99.96;76720.25;5285047;28;20043;-75
2023/08/30 09:14:57;;;;;;;3.97;3.38;;;;;;;-145.79;100.00;76711.75;5302718;28;20021;-76
2023/08/30 09:17:39;;;;;;;4.30;3.90;;;;;;;-145.79;100.00;76709.66;5291242;28;20040;-74
2023/08/30 09:20:12;;;;;;;5.75;5.15;;;;;;;-145.79;100.00;76694.81;5294760;28;20032;-75
2023/08/30 09:22:44;;;;;;;4.53;4.13;;;;;;;-145.79;100.00;76690.56;5296032;28;20066;-75
2023/08/30 09:25:26;;;;;;;4.93;4.53;;;;;;;-145.79;100.00;76690.56;5287137;28;20025;-74
2023/08/30 09:27:59;;;;;;;4.60;4.20;;;;;;;-145.79;100.00;76690.56;5289051;28;20036;-75
2023/08/30 09:30:31;;;;;;;5.10;4.60;;;;;;;-145.79;100.00;76686.34;5292121;28;20036;-75
2023/08/30 09:33:03;;;;;;;4.78;4.30;;;;;;;-145.79;100.00;76682.09;5283978;28;20036;-75
2023/08/30 09:35:44;;;;;;;4.88;4.40;;;;;;;-145.79;100.00;76682.09;5287946;28;20032;-75
2023/08/30 09:38:19;;;;;;;4.47;4.10;;;;;;;-145.79;100.00;76690.56;5290203;28;20028;-75
2023/08/30 09:40:51;;;;;;;5.07;4.27;;;;;;;-145.79;100.00;76684.22;5296843;28;20028;-74
2023/08/30 09:43:23;;;;;;;5.32;4.88;;;;;;;-145.79;100.00;76669.38;5287152;28;20044;-75
2023/08/30 09:45:55;;;;;;;21.48;19.40;;;;;;;-145.79;100.00;76660.91;5285791;28;20066;-75
2023/08/30 09:48:29;;;;;;;17.98;16.40;;;;;;;-145.79;100.00;76654.53;5298761;28;20443;-75
2023/08/30 09:51:07;;;;;;;6.20;5.70;;;;;;;-145.79;100.00;76643.94;5288277;28;20021;-75
2023/08/30 09:53:43;;;;;;;5.15;4.75;;;;;;;-145.79;100.00;76639.72;5288416;28;20036;-77
2023/08/30 09:56:16;;;;;;;4.93;4.53;;;;;;;-145.79;99.51;76624.88;5292274;28;20029;-76
2023/08/30 09:58:49;;;;;;;5.70;5.20;;;;;;;-145.79;99.70;76610.03;5285840;28;20056;-76
2023/08/30 10:01:20;;;;;;;6.20;5.60;;;;;;;-145.79;100.00;76599.44;5289340;28;20037;-76
2023/08/30 10:03:52;;;;;;;6.57;5.90;;;;;;;-145.79;100.00;76588.84;5296243;28;20028;-77
2023/08/30 10:06:28;;;;;;;6.28;5.78;;;;;;;-145.79;100.00;76578.25;5295323;28;20034;-78
2023/08/30 10:09:00;;;;;;;5.95;5.45;;;;;;;-145.79;98.28;76559.19;5293254;28;20105;-75
2023/08/30 10:11:36;;;;;;;6.55;5.95;;;;;;;-145.79;98.34;76544.34;5290815;28;20079;-75
2023/08/30 10:14:07;;;;;;;6.85;6.28;;;;;;;-145.79;96.54;76540.09;5285913;28;20028;-74
2023/08/30 10:16:48;;;;;;;7.03;6.43;;;;;;;-145.79;96.93;76516.78;5291812;28;20101;-75
2023/08/30 10:19:27;;;;;;;7.25;6.65;;;;;;;-145.79;98.13;76491.38;5285202;28;20036;-74
2023/08/30 10:22:04;;;;;;;6.80;6.20;;;;;;;-145.79;98.16;76472.28;5289582;28;20039;-74
2023/08/30 10:24:40;;;;;;;7.70;7.10;;;;;;;-145.79;96.54;76476.53;5288429;28;20035;-75
2023/08/30 10:27:14;;;;;;;7.63;7.03;;;;;;;-145.79;96.67;76453.22;5293004;28;20019;-74
2023/08/30 10:29:48;;;;;;;8.18;7.32;;;;;;;-145.79;94.43;76455.34;5288607;28;20024;-75
2023/08/30 10:32:23;;;;;;;8.10;7.40;;;;;;;-145.79;92.78;76442.63;5285418;28;20111;-75
2023/08/30 10:34:57;;;;;;;7.90;7.30;;;;;;;-145.79;93.96;76432.03;5287441;28;20028;-76
2023/08/30 10:37:29;;;;;;;7.65;7.05;;;;;;;-145.79;94.43;76410.84;5289892;28;20113;-75
2023/08/30 10:40:04;;;;;;;7.80;7.10;;;;;;;-145.79;91.87;76406.59;5287297;28;20142;-74
2023/08/30 10:42:35;;;;;;;7.93;7.23;;;;;;;-145.79;90.68;76400.25;5279105;28;20036;-74
2023/08/30 10:45:07;;;;;;;7.10;6.50;;;;;;;-145.79;92.07;76374.81;5280105;28;20365;-76
2023/08/30 10:47:39;;;;;;;7.70;6.43;;;;;;;-145.79;90.74;76381.16;5285188;28;20052;-74
2023/08/30 10:50:11;;;;;;;7.00;6.30;;;;;;;-145.79;88.47;76366.34;5279858;28;20181;-74
2023/08/30 10:52:42;;;;;;;14.90;13.65;;;;;;;-145.79;87.60;76357.84;5289674;28;20360;-71
2023/08/30 10:55:15;;;;;;;6.93;6.43;;;;;;;-145.79;88.93;76351.50;5283557;28;20041;-74
2023/08/30 10:58:02;;;;;;;6.78;6.18;;;;;;;-145.79;86.86;76351.50;5288395;28;20075;-74
2023/08/30 11:00:35;;;;;;;7.20;6.70;;;;;;;-145.79;88.41;76351.50;5293505;28;20036;-76
2023/08/30 11:03:14;;;;;;;6.50;5.90;;;;;;;-145.79;86.77;76351.50;5282385;28;20032;-76
2023/08/30 11:05:49;;;;;;;7.00;6.40;;;;;;;-145.79;87.19;76347.25;5291606;28;20028;-75
2023/08/30 11:08:21;;;;;;;7.38;6.68;;;;;;;-145.79;88.26;76338.78;5296272;28;20031;-74
2023/08/30 11:11:03;;;;;;;6.45;5.82;;;;;;;-145.79;87.93;76347.25;5289547;28;20028;-75
2023/08/30 11:13:34;;;;;;;4.68;4.13;;;;;;;-145.79;83.91;76340.91;5288805;28;20116;-75
2023/08/30 11:16:06;;;;;;;5.00;4.30;;;;;;;-145.79;80.40;76326.06;5291776;28;20063;-75
2023/08/30 11:18:41;;;;;;;4.07;3.67;;;;;;;-145.79;81.35;76317.59;5282813;28;20013;-75
2023/08/30 11:21:12;;;;;;;;;;;;;;;-145.79;77.93;76294.28;5290877;28;20027;-74
2023/08/30 11:23:44;;;;;;;13.05;10.55;;;;;;;-145.79;77.64;76290.06;5287651;28;19928;-74
2023/08/30 11:26:16;;;;;;;5.88;3.97;;;;;;;-145.79;76.19;76270.97;5286466;28;20111;-75
2023/08/30 11:28:48;;;;;;;5.38;3.30;;;;;;;-145.79;76.08;76275.22;5287942;28;20052;-76
2023/08/30 11:31:27;;;;;;;3.50;2.70;;;;;;;-145.79;73.65;76268.84;5290849;28;20121;-75
2023/08/30 11:33:59;;;;;;;5.13;2.90;;;;;;;-145.79;74.01;76281.56;5289669;28;20103;-74
2023/08/30 11:36:34;;;;;;;6.43;2.85;;;;;;;-145.79;74.43;76292.16;5285582;28;20032;-75
2023/08/30 11:39:06;;;;;;;4.80;2.55;;;;;;;-145.79;74.61;76300.66;5297894;28;20463;-75
2023/08/30 11:41:39;;;;;;;4.40;2.97;;;;;;;-145.79;74.43;76304.88;5291690;28;20112;-75
2023/08/30 11:44:11;;;;;;;6.20;4.03;;;;;;;-145.79;74.79;76296.41;5289341;28;20020;-75
2023/08/30 11:46:43;;;;;;;4.70;2.60;;;;;;;-145.79;73.99;76298.53;5283177;28;20035;-75
2023/08/30 11:49:14;;;;;;;6.00;2.63;;;;;;;-145.79;69.07;76313.34;5282495;28;20037;-74
2023/08/30 11:51:46;;;;;;;4.55;2.50;;;;;;;-145.79;68.61;76319.72;5292729;28;20119;-75
2023/08/30 11:54:19;;;;;;;6.20;2.65;;;;;;;-145.79;69.71;76279.47;5295100;28;20031;-79
2023/08/30 11:56:51;;;;;;;5.53;2.65;;;;;;;-145.79;68.84;76281.56;5294359;28;20051;-82
2023/08/30 11:59:25;;;;;;;4.43;2.53;;;;;;;-145.79;68.00;76298.53;5304186;28;20032;-82
2023/08/30 12:01:56;;;;;;;4.80;2.50;;;;;;;-145.79;68.90;76296.41;5304294;28;20031;-82
2023/08/30 12:04:27;;;;;;;5.20;2.70;;;;;;;-145.79;68.46;76270.97;5303550;28;20020;-84
2023/08/30 12:07:04;;;;;;;5.57;2.65;;;;;;;-145.79;60.71;76264.63;5316214;28;20035;-81
2023/08/30 12:09:36;;;;;;;6.95;2.17;;;;;;;-145.79;63.27;76254.03;5310713;28;20051;-82
2023/08/30 12:12:11;;;;;;;5.55;2.50;;;;;;;-145.79;61.99;76270.97;5295486;28;20367;-83
2023/08/30 12:14:43;;;;;;;5.13;3.22;;;;;;;-145.79;61.87;76283.69;5306077;28;20021;-83
2023/08/30 12:17:14;;;;;;;5.68;3.03;;;;;;;-145.79;62.21;76292.16;5301404;28;20028;-79
2023/08/30 12:19:45;;;;;;;52.15;47.28;;;;;;;-145.79;63.73;76273.09;5299570;28;20040;-83
2023/08/30 12:22:20;;;;;;;6.85;5.15;;;;;;;-145.79;64.11;76268.84;5288525;28;20557;-82
2023/08/30 12:24:54;;;;;;;6.00;2.57;;;;;;;-145.79;65.11;76264.63;5283389;28;20147;-77
2023/08/30 12:27:26;;;;;;;5.60;2.90;;;;;;;-145.79;64.79;76270.97;5293096;28;20383;-76
2023/08/30 12:29:57;;;;;;;5.10;2.40;;;;;;;-145.79;62.40;76260.38;5293510;28;20025;-76
2023/08/30 12:32:48;;;;;;;5.07;2.22;;;;;;;-145.79;63.54;76241.31;5296182;28;20016;-76
2023/08/30 12:35:20;;;;;;;4.47;2.20;;;;;;;-145.79;61.37;76254.03;5290177;28;20094;-77
2023/08/30 12:37:51;;;;;;;3.83;2.20;;;;;;;-145.79;61.73;76285.81;5293698;28;20452;-75
2023/08/30 12:40:23;;;;;;;4.80;3.22;;;;;;;-145.79;62.27;76281.56;5292029;28;20036;-76
2023/08/30 12:42:54;;;;;;;6.63;3.10;;;;;;;-145.79;63.11;76275.22;5285172;28;20054;-76
2023/08/30 12:45:25;;;;;;;5.47;2.72;;;;;;;-145.79;62.19;76279.47;5294248;28;20028;-78
2023/08/30 12:47:58;;;;;;;5.38;2.40;;;;;;;-145.79;62.21;76283.69;5290205;28;20416;-78
2023/08/30 12:50:33;;;;;;;4.50;2.60;;;;;;;-145.79;61.91;76264.63;5301810;28;20032;-78
2023/08/30 12:53:05;;;;;;;6.65;2.38;;;;;;;-145.79;62.12;76228.59;5292453;28;20032;-76
2023/08/30 12:55:40;;;;;;;3.65;2.38;;;;;;;-145.79;57.30;76203.16;5294240;28;20029;-76
2023/08/30 12:58:12;;;;;;;2.65;2.13;;;;;;;-145.79;57.25;76207.41;5297330;28;20035;-76
2023/08/30 13:00:43;;;;;;;5.10;2.58;;;;;;;-145.79;58.77;76209.53;5292527;28;20021;-74
2023/08/30 13:03:14;;;;;;;7.65;2.63;;;;;;;-145.79;59.08;76215.88;5293260;28;20028;-76
2023/08/30 13:05:46;;;;;;;4.82;2.60;;;;;;;-145.79;59.42;76194.69;5290402;28;20744;-77
2023/08/30 13:08:17;;;;;;;5.75;2.40;;;;;;;-145.79;58.72;76179.88;5295502;28;20024;-76
2023/08/30 13:10:48;;;;;;;4.28;2.42;;;;;;;-145.79;57.19;76156.56;5286912;28;20032;-76
2023/08/30 13:13:21;;;;;;;4.47;2.47;;;;;;;-145.79;55.88;76139.59;5296807;28;20028;-76
2023/08/30 13:15:52;;;;;;;7.78;2.42;;;;;;;-145.79;56.82;76116.28;5295122;28;20047;-73
2023/08/30 13:18:24;;;;;;;6.90;3.95;;;;;;;-145.79;53.87;76139.59;5283899;28;20029;-75
2023/08/30 13:20:55;;;;;;;4.22;2.70;;;;;;;-145.79;54.63;76107.81;5284814;28;20035;-75
2023/08/30 13:23:29;;;;;;;4.55;1.75;;;;;;;-145.79;53.79;76114.19;5292021;28;20156;-74
2023/08/30 13:26:00;;;;;;;4.50;1.88;;;;;;;-145.79;51.60;76139.59;5294381;28;20047;-75
2023/08/30 13:28:31;;;;;;;3.38;2.53;;;;;;;-145.79;50.89;76143.84;5285314;28;20031;-76
2023/08/30 13:31:03;;;;;;;5.10;2.35;;;;;;;-145.79;50.20;76143.84;5293492;28;20023;-76
2023/08/30 13:33:34;;;;;;;6.90;2.30;;;;;;;-145.79;51.64;76126.88;5292704;28;20029;-74
2023/08/30 13:36:06;;;;;;;5.30;2.03;;;;;;;-145.79;52.69;76148.06;5291941;28;20028;-75
2023/08/30 13:38:38;;;;;;;4.53;2.20;;;;;;;-145.79;51.74;76122.66;5296674;28;20081;-75
2023/08/30 13:41:10;;;;;;;2.80;1.90;;;;;;;-145.79;50.92;76139.59;5290484;28;20526;-75
2023/08/30 13:43:41;;;;;;;4.88;2.63;;;;;;;-145.79;51.97;76124.78;5290986;28;20020;-74
2023/08/30 13:46:12;;;;;;;4.63;1.80;;;;;;;-145.79;52.22;76152.31;5289532;28;20130;-76
2023/08/30 13:48:48;;;;;;;7.07;2.22;;;;;;;-145.79;52.79;76114.19;5298647;28;20044;-75
2023/08/30 13:51:26;;;;;;;7.43;2.63;;;;;;;-145.79;52.24;76112.06;5291121;28;20047;-75
2023/08/30 13:53:57;;;;;;;6.90;4.65;;;;;;;-145.79;52.46;76122.66;5287510;28;20024;-73
2023/08/30 13:56:28;;;;;;;5.47;1.95;;;;;;;-145.79;52.48;76126.88;5301741;28;20043;-71
2023/08/30 13:59:00;;;;;;;5.00;2.47;;;;;;;-145.79;52.01;76139.59;5290183;28;20035;-72
2023/08/30 14:01:31;;;;;;;5.15;1.70;;;;;;;-145.79;50.69;76165.03;5290065;28;20100;-72
2023/08/30 14:04:06;;;;;;;4.35;1.83;;;;;;;-145.79;51.19;76148.06;5291273;28;20021;-72
2023/08/30 14:06:38;;;;;;;6.03;2.10;;;;;;;-145.79;50.42;76124.78;5290516;28;20395;-71
2023/08/30 14:09:09;;;;;;;2.75;1.60;;;;;;;-145.79;50.17;76118.41;5294834;28;20027;-71
2023/08/30 14:11:41;;;;;;;6.45;1.98;;;;;;;-145.79;49.67;76099.34;5291497;28;20483;-71
2023/08/30 14:14:12;;;;;;;7.03;2.50;;;;;;;-145.79;50.04;76116.28;5282893;28;20021;-71
2023/08/30 14:16:44;;;;;;;3.28;1.67;;;;;;;-145.79;50.04;76135.38;5291465;28;20031;-70
2023/08/30 14:19:16;;;;;;;6.80;2.53;;;;;;;-145.79;51.37;76160.78;5298516;28;20388;-71
2023/08/30 14:21:47;;;;;;;5.32;1.90;;;;;;;-145.79;53.96;76192.56;5299204;28;20048;-75
2023/08/30 14:24:19;;;;;;;5.78;1.83;;;;;;;-145.79;53.89;76213.75;5304655;28;20372;-76
2023/08/30 14:26:50;;;;;;;6.38;2.15;;;;;;;-145.79;54.61;76205.28;5286090;28;20031;-75
2023/08/30 14:29:24;;;;;;;7.70;2.38;;;;;;;-145.79;54.15;76228.59;5290473;28;20020;-75
2023/08/30 14:31:55;;;;;;;4.03;1.60;;;;;;;-145.79;54.60;76228.59;5282093;28;20048;-75
2023/08/30 14:34:27;;;;;;;3.60;1.77;;;;;;;-145.79;54.00;76207.41;5291447;28;20051;-75
2023/08/30 14:37:01;;;;;;;5.03;1.77;;;;;;;-145.79;54.22;76198.94;5285888;28;20035;-76
2023/08/30 14:39:33;;;;;;;7.00;1.88;;;;;;;-145.79;54.13;76169.25;5286796;28;20024;-74
2023/08/30 14:42:04;;;;;;;4.47;1.90;;;;;;;-145.79;54.63;76179.88;5292358;28;20113;-73
2023/08/30 14:44:36;;;;;;;3.97;1.75;;;;;;;-145.79;54.73;76169.25;5298802;28;20028;-71
2023/08/30 14:47:07;;;;;;;7.15;1.75;;;;;;;-145.79;54.89;76179.88;5294994;28;20475;-74
2023/08/30 14:49:39;;;;;;;3.85;1.77;;;;;;;-145.79;55.33;76215.88;5303827;28;20096;-73
2023/08/30 14:52:19;;;;;;;4.80;1.90;;;;;;;-145.79;56.26;76209.53;5296937;28;20021;-74
2023/08/30 14:54:56;;;;;;;27.92;25.15;;;;;;;-145.79;56.30;76215.88;5282882;28;20039;-74
2023/08/30 14:57:28;;;;;;;24.13;20.77;;;;;;;-145.79;56.68;76215.88;5282944;28;20035;-77
2023/08/30 14:59:59;;;;;;;3.80;1.85;;;;;;;-145.79;54.82;76211.66;5285812;28;20122;-73
2023/08/30 15:02:31;;;;;;;2.47;1.40;;;;;;;-145.79;52.51;76234.97;5287477;28;20124;-74
2023/08/30 15:05:02;;;;;;;2.38;1.30;;;;;;;-145.79;52.83;76211.66;5294841;28;20026;-74
2023/08/30 15:07:33;;;;;;;3.00;1.55;;;;;;;-145.79;51.08;76243.44;5294365;28;20355;-74
2023/08/30 15:10:05;;;;;;;2.63;1.30;;;;;;;-145.79;51.62;76234.97;5286135;28;20024;-75
2023/08/30 15:12:37;;;;;;;2.88;1.63;;;;;;;-145.79;51.57;76211.66;5292514;28;20036;-74
2023/08/30 15:15:09;;;;;;;6.15;1.42;;;;;;;-145.79;51.72;76192.56;5273172;28;20471;-75
2023/08/30 15:17:40;;;;;;;3.47;1.42;;;;;;;-145.79;51.08;76211.66;5296590;28;20027;-74
2023/08/30 15:20:11;;;;;;;2.05;1.30;;;;;;;-145.79;51.72;76209.53;5289773;28;20470;-72
2023/08/30 15:22:43;;;;;;;2.95;1.65;;;;;;;-145.79;52.12;76232.84;5286200;28;20044;-72
2023/08/30 15:25:14;;;;;;;5.70;1.95;;;;;;;-145.79;52.66;76237.06;5271558;28;20074;-72
2023/08/30 15:27:46;;;;;;;4.55;1.65;;;;;;;-145.79;53.65;76298.53;5281051;28;20085;-71
2023/08/30 15:30:18;;;;;;;2.85;1.60;;;;;;;-145.79;54.78;76298.53;5281123;28;20029;-74
2023/08/30 15:32:49;;;;;;;4.20;1.40;;;;;;;-145.79;54.99;76275.22;5268549;28;20024;-79
2023/08/30 15:35:21;;;;;;;3.35;1.48;;;;;;;-145.79;54.71;76290.06;5261198;28;20025;-76
2023/08/30 15:37:52;;;;;;;2.42;1.40;;;;;;;-145.79;54.78;76302.75;5274936;28;20497;-82
2023/08/30 15:40:34;;;;;;;3.42;1.30;;;;;;;-145.79;55.14;76304.88;5329537;22;20044;-80
2023/08/30 15:43:05;;;;;;;4.30;1.90;;;;;;;-145.79;55.16;76345.16;5261065;28;20128;-79
2023/08/30 15:45:37;;;;;;;5.10;2.13;;;;;;;-145.79;55.51;76330.31;5257626;28;20104;-79
2023/08/30 15:48:08;;;;;;;8.57;4.97;;;;;;;-145.79;55.46;76315.47;5265981;28;20472;-80
2023/08/30 15:50:39;;;;;;;4.65;2.03;;;;;;;-145.79;54.34;76319.72;5257279;28;20032;-80
2023/08/30 15:53:11;;;;;;;5.22;1.73;;;;;;;-145.79;53.77;76330.31;5265426;28;20029;-79
2023/08/30 15:55:42;;;;;;;2.63;1.40;;;;;;;-145.79;53.55;76372.69;5271384;28;20017;-79
2023/08/30 15:58:13;;;;;;;3.35;1.17;;;;;;;-145.79;54.19;76353.63;5266069;28;20031;-78
2023/08/30 16:00:47;;;;;;;3.67;1.40;;;;;;;-145.79;52.43;76347.25;5262180;28;20055;-76
2023/08/30 16:03:19;;;;;;;2.15;1.20;;;;;;;-145.79;50.76;76338.78;5264633;28;20029;-77
2023/08/30 16:05:50;;;;;;;2.80;1.05;;;;;;;-145.79;50.06;76343.03;5265384;28;20037;-76
2023/08/30 16:08:26;;;;;;;1.88;1.08;;;;;;;-145.79;51.06;76313.34;5258395;28;20029;-76
2023/08/30 16:10:57;;;;;;;3.33;1.40;;;;;;;-145.79;49.57;76309.13;5258507;28;20430;-76
2023/08/30 16:13:29;;;;;;;2.17;1.02;;;;;;;-145.79;49.30;76323.97;5257692;28;20033;-76
2023/08/30 16:16:03;;;;;;;2.72;1.17;;;;;;;-145.79;49.70;76304.88;5264494;28;20047;-75
2023/08/30 16:18:34;;;;;;;5.10;3.10;;;;;;;-145.79;49.40;76294.28;5257693;28;20044;-76
2023/08/30 16:21:05;;;;;;;2.47;1.70;;;;;;;-145.79;50.21;76304.88;5261860;28;20021;-76
2023/08/30 16:23:38;;;;;;;1.70;1.20;;;;;;;-145.79;50.68;76317.59;5257950;28;20071;-77
2023/08/30 16:26:09;;;;;;;2.60;1.20;;;;;;;-145.79;50.78;76321.84;5260019;28;20120;-77
2023/08/30 16:28:41;;;;;;;3.72;2.17;;;;;;;-145.79;50.98;76317.59;5262583;28;20039;-77
2023/08/30 16:31:12;;;;;;;2.42;1.10;;;;;;;-145.79;50.32;76323.97;5262220;28;20025;-76
2023/08/30 16:33:43;;;;;;;4.40;2.20;;;;;;;-145.79;50.71;76317.59;5253663;28;20123;-75
2023/08/30 16:36:17;;;;;;;3.42;1.45;;;;;;;-145.79;51.86;76313.34;5264258;28;20120;-73
2023/08/30 16:38:49;;;;;;;3.50;1.35;;;;;;;-145.79;52.42;76300.66;5255494;28;20056;-72
2023/08/30 16:41:20;;;;;;;7.38;1.85;;;;;;;-145.79;52.26;76287.94;5264059;28;20121;-73
2023/08/30 16:43:51;;;;;;;3.22;1.20;;;;;;;-145.79;52.10;76309.13;5255818;28;20024;-73
2023/08/30 16:46:23;;;;;;;3.40;1.45;;;;;;;-145.79;50.54;76311.25;5261067;28;20021;-73
2023/08/30 16:48:54;;;;;;;4.13;1.73;;;;;;;-145.79;50.32;76326.06;5251330;28;20116;-74
2023/08/30 16:51:25;;;;;;;3.10;1.30;;;;;;;-145.79;50.44;76311.25;5260000;28;20032;-73
2023/08/30 16:53:57;;;;;;;3.00;1.30;;;;;;;-145.79;50.25;76315.47;5257739;28;20026;-73
